createdAt,value
2023-03-17T00:00:41.467Z,1.00
2023-03-17T00:03:12.115Z,1.10
2023-03-17T00:05:41.385Z,1.10
2023-03-17T00:08:14.861Z,1.10
2023-03-17T00:10:42.750Z,1.40
2023-03-17T00:13:12.673Z,1.20
2023-03-17T00:15:41.061Z,1.40
2023-03-17T00:18:12.145Z,1.40
2023-03-17T00:20:42.102Z,1.00
2023-03-17T00:23:14.840Z,1.17
2023-03-17T00:25:43.423Z,1.30
2023-03-17T00:28:17.074Z,1.20
2023-03-17T00:30:45.118Z,1.10
2023-03-17T00:33:13.342Z,1.10
2023-03-17T00:35:42.860Z,1.50
2023-03-17T00:38:13.255Z,1.30
2023-03-17T00:40:41.162Z,1.00
2023-03-17T00:43:09.364Z,1.00
2023-03-17T00:45:37.988Z,1.13
2023-03-17T00:48:13.475Z,1.30
2023-03-17T00:50:43.198Z,1.27
2023-03-17T00:53:12.355Z,1.10
2023-03-17T00:55:40.629Z,1.60
2023-03-17T00:58:14.888Z,1.30
2023-03-17T01:00:42.952Z,1.20
2023-03-17T01:03:12.477Z,0.93
2023-03-17T01:05:42.692Z,1.30
2023-03-17T01:08:11.130Z,1.30
2023-03-17T01:10:39.051Z,1.10
2023-03-17T01:13:07.624Z,1.20
2023-03-17T01:15:35.768Z,1.20
2023-03-17T01:18:03.905Z,1.03
2023-03-17T01:20:34.446Z,1.03
2023-03-17T01:23:04.159Z,1.30
2023-03-17T01:25:33.742Z,1.53
2023-03-17T01:28:02.270Z,1.30
2023-03-17T01:30:32.867Z,1.50
2023-03-17T01:33:01.499Z,1.13
2023-03-17T01:35:31.506Z,1.23
2023-03-17T01:37:59.887Z,1.30
2023-03-17T01:40:32.317Z,1.20
2023-03-17T01:43:02.164Z,1.20
2023-03-17T01:46:07.712Z,1.23
2023-03-17T01:48:38.742Z,1.03
2023-03-17T01:51:07.277Z,1.10
2023-03-17T01:53:35.732Z,1.20
2023-03-17T01:56:05.591Z,1.13
2023-03-17T01:58:34.653Z,1.30
2023-03-17T02:01:02.706Z,1.00
2023-03-17T02:03:30.880Z,1.13
2023-03-17T02:05:59.225Z,1.47
2023-03-17T02:08:27.400Z,1.20
2023-03-17T02:10:56.445Z,1.20
2023-03-17T02:13:27.004Z,1.20
2023-03-17T02:15:55.089Z,1.40
2023-03-17T02:18:23.796Z,0.93
2023-03-17T02:21:28.915Z,1.60
2023-03-17T02:23:57.347Z,1.57
2023-03-17T02:26:26.063Z,1.63
2023-03-17T02:28:53.963Z,1.50
2023-03-17T02:31:22.187Z,1.17
2023-03-17T02:33:50.432Z,1.40
2023-03-17T02:36:18.336Z,1.50
2023-03-17T02:38:48.058Z,1.60
2023-03-17T02:41:16.969Z,1.70
2023-03-17T02:43:44.893Z,1.50
2023-03-17T02:46:12.927Z,1.30
2023-03-17T02:48:41.016Z,1.60
2023-03-17T02:51:09.065Z,1.30
2023-03-17T02:53:37.216Z,1.50
2023-03-17T02:56:07.302Z,1.50
2023-03-17T02:58:35.764Z,1.50
2023-03-17T03:01:04.115Z,1.37
2023-03-17T03:03:32.230Z,1.50
2023-03-17T03:06:02.962Z,1.77
2023-03-17T03:08:31.020Z,1.80
2023-03-17T03:11:00.433Z,1.77
2023-03-17T03:13:29.755Z,1.50
2023-03-17T03:15:57.735Z,1.40
2023-03-17T03:18:26.173Z,1.50
2023-03-17T03:20:54.071Z,1.63
2023-03-17T03:23:21.984Z,1.60
2023-03-17T03:25:49.948Z,1.50
2023-03-17T03:28:17.846Z,1.70
2023-03-17T03:30:47.352Z,1.23
2023-03-17T03:33:16.109Z,1.80
2023-03-17T03:35:44.421Z,1.20
2023-03-17T03:38:12.540Z,1.67
2023-03-17T03:40:40.681Z,1.33
2023-03-17T03:43:22.003Z,1.50
2023-03-17T03:45:52.157Z,1.63
2023-03-17T03:48:20.490Z,1.60
2023-03-17T03:50:48.552Z,1.70
2023-03-17T03:53:16.460Z,1.30
2023-03-17T03:55:44.371Z,1.67
2023-03-17T03:58:12.323Z,1.80
2023-03-17T04:00:40.250Z,1.53
2023-03-17T04:03:09.656Z,1.50
2023-03-17T04:05:37.642Z,1.40
2023-03-17T04:08:06.715Z,1.50
2023-03-17T04:10:34.767Z,1.43
2023-03-17T04:13:02.986Z,1.87
2023-03-17T04:15:31.198Z,1.70
2023-03-17T04:17:59.149Z,1.73
2023-03-17T04:20:28.923Z,1.50
2023-03-17T04:22:56.997Z,1.50
2023-03-17T04:25:24.947Z,1.80
2023-03-17T04:27:52.945Z,1.80
2023-03-17T04:30:21.083Z,1.83
2023-03-17T04:32:49.068Z,1.60
2023-03-17T04:35:18.912Z,1.90
2023-03-17T04:37:48.622Z,1.70
2023-03-17T04:40:17.561Z,1.60
2023-03-17T04:42:45.456Z,1.50
2023-03-17T04:45:14.768Z,2.07
2023-03-17T04:47:42.689Z,1.83
2023-03-17T04:50:12.009Z,1.80
2023-03-17T04:52:40.017Z,1.70
2023-03-17T04:55:10.376Z,2.03
2023-03-17T04:57:38.487Z,2.07
2023-03-17T05:00:08.475Z,2.20
2023-03-17T05:02:38.963Z,1.77
2023-03-17T05:05:07.011Z,1.83
2023-03-17T05:07:34.933Z,1.60
2023-03-17T05:10:03.186Z,1.40
2023-03-17T05:12:32.535Z,2.00
2023-03-17T05:15:00.462Z,1.70
2023-03-17T05:17:28.404Z,2.20
2023-03-17T05:19:56.469Z,1.90
2023-03-17T05:22:24.462Z,1.90
2023-03-17T05:24:52.425Z,2.10
2023-03-17T05:27:20.342Z,1.93
2023-03-17T05:29:49.883Z,2.17
2023-03-17T05:32:18.349Z,1.70
2023-03-17T05:34:46.402Z,1.87
2023-03-17T05:37:14.376Z,1.70
2023-03-17T05:39:42.300Z,2.13
2023-03-17T05:42:10.237Z,2.40
2023-03-17T05:44:38.142Z,2.00
2023-03-17T05:47:08.502Z,2.27
2023-03-17T05:49:36.964Z,2.27
2023-03-17T05:52:05.066Z,2.30
2023-03-17T05:54:33.032Z,2.13
2023-03-17T05:57:01.121Z,1.73
2023-03-17T05:59:29.092Z,2.07
2023-03-17T06:01:57.306Z,1.80
2023-03-17T06:04:26.758Z,2.30
2023-03-17T06:06:54.644Z,2.40
2023-03-17T06:09:22.529Z,1.80
2023-03-17T06:11:50.908Z,2.10
2023-03-17T06:14:19.568Z,1.80
2023-03-17T06:16:47.487Z,2.10
2023-03-17T06:19:15.391Z,1.60
2023-03-17T06:21:44.710Z,2.83
2023-03-17T06:24:12.651Z,2.03
2023-03-17T06:26:41.409Z,1.97
2023-03-17T06:29:10.027Z,2.40
2023-03-17T06:31:38.212Z,1.70
2023-03-17T06:34:06.782Z,2.40
2023-03-17T06:36:36.430Z,1.80
2023-03-17T06:39:07.539Z,2.37
2023-03-17T06:41:35.629Z,1.60
2023-03-17T06:44:05.371Z,2.53
2023-03-17T06:46:33.415Z,1.80
2023-03-17T06:49:01.334Z,2.40
2023-03-17T06:51:29.248Z,2.37
2023-03-17T06:53:57.303Z,2.60
2023-03-17T06:56:30.213Z,1.80
2023-03-17T06:58:58.781Z,2.70
2023-03-17T07:01:27.318Z,2.20
2023-03-17T07:03:55.497Z,2.10
2023-03-17T07:06:24.577Z,2.40
2023-03-17T07:08:52.471Z,3.07
2023-03-17T07:11:20.400Z,3.10
2023-03-17T07:13:49.721Z,2.63
2023-03-17T07:16:19.617Z,3.30
2023-03-17T07:18:47.587Z,2.73
2023-03-17T07:21:15.663Z,3.27
2023-03-17T07:23:43.597Z,2.80
2023-03-17T07:26:11.494Z,3.50
2023-03-17T07:28:40.390Z,9.80
2023-03-17T07:31:11.603Z,3.20
2023-03-17T07:33:39.703Z,3.00
2023-03-17T07:36:09.131Z,2.70
2023-03-17T07:38:37.418Z,2.70
2023-03-17T07:41:09.858Z,2.23
2023-03-17T07:43:38.743Z,2.40
2023-03-17T07:46:07.478Z,2.53
2023-03-17T07:48:41.028Z,2.53
2023-03-17T07:51:13.496Z,2.73
2023-03-17T07:53:41.754Z,2.50
2023-03-17T07:56:09.814Z,2.70
2023-03-17T07:58:37.798Z,1.80
2023-03-17T08:01:06.152Z,2.27
2023-03-17T08:03:34.500Z,2.60
2023-03-17T08:06:06.147Z,2.20
2023-03-17T08:08:34.107Z,2.30
2023-03-17T08:11:03.670Z,2.33
2023-03-17T08:13:32.231Z,2.40
2023-03-17T08:16:00.701Z,2.73
2023-03-17T08:18:28.855Z,2.47
2023-03-17T08:20:56.748Z,2.83
2023-03-17T08:23:26.617Z,2.50
2023-03-17T08:25:58.360Z,3.07
2023-03-17T08:28:27.222Z,2.90
2023-03-17T08:30:55.953Z,2.53
2023-03-17T08:33:24.116Z,2.30
2023-03-17T08:35:52.238Z,2.20
2023-03-17T08:38:20.166Z,2.50
2023-03-17T08:40:51.069Z,2.03
2023-03-17T08:43:19.032Z,2.50
2023-03-17T08:45:47.058Z,2.47
2023-03-17T08:48:15.357Z,2.60
2023-03-17T08:50:43.526Z,2.60
2023-03-17T08:53:11.928Z,2.07
2023-03-17T08:55:39.852Z,2.37
2023-03-17T08:58:09.448Z,2.50
2023-03-17T09:00:37.432Z,2.80
2023-03-17T09:03:05.821Z,2.60
2023-03-17T09:05:36.203Z,2.50
2023-03-17T09:08:05.668Z,2.40
2023-03-17T09:10:34.042Z,2.27
2023-03-17T09:13:04.116Z,2.00
2023-03-17T09:15:34.776Z,1.83
2023-03-17T09:18:03.356Z,2.17
2023-03-17T09:20:31.563Z,2.57
2023-03-17T09:22:59.928Z,2.37
2023-03-17T09:25:28.457Z,2.33
2023-03-17T09:27:56.789Z,2.23
2023-03-17T09:30:26.934Z,2.53
2023-03-17T09:32:56.394Z,2.60
2023-03-17T09:35:24.563Z,2.47
2023-03-17T09:37:52.706Z,1.93
2023-03-17T09:40:25.749Z,2.33
2023-03-17T09:43:06.062Z,2.57
2023-03-17T09:45:35.739Z,2.00
2023-03-17T09:48:33.744Z,2.60
2023-03-17T09:51:04.966Z,2.10
2023-03-17T09:53:36.070Z,2.87
2023-03-17T09:56:08.457Z,2.40
2023-03-17T09:58:37.654Z,1.87
2023-03-17T10:01:06.278Z,1.90
2023-03-17T10:03:35.605Z,2.20
2023-03-17T10:06:32.254Z,2.40
2023-03-17T10:09:04.732Z,2.13
2023-03-17T10:11:39.560Z,2.10
2023-03-17T10:14:15.983Z,1.90
2023-03-17T10:16:48.489Z,2.27
2023-03-17T10:19:24.517Z,2.07
2023-03-17T10:21:55.659Z,2.30
2023-03-17T10:24:24.733Z,2.33
2023-03-17T10:26:54.324Z,2.30
2023-03-17T10:29:23.986Z,2.47
2023-03-17T10:31:53.067Z,2.17
2023-03-17T10:34:25.552Z,2.00
2023-03-17T10:36:56.948Z,2.43
2023-03-17T10:39:25.998Z,2.03
2023-03-17T10:41:57.426Z,2.13
2023-03-17T10:44:41.198Z,2.40
2023-03-17T10:47:22.798Z,1.90
2023-03-17T10:49:52.518Z,2.07
2023-03-17T10:52:23.488Z,2.00
2023-03-17T10:54:52.716Z,2.37
2023-03-17T10:57:20.840Z,2.27
2023-03-17T10:59:53.390Z,1.80
2023-03-17T11:02:29.466Z,2.40
2023-03-17T11:05:02.970Z,1.80
2023-03-17T11:07:36.624Z,1.97
2023-03-17T11:10:20.319Z,2.10
2023-03-17T11:12:50.942Z,1.70
2023-03-17T11:15:20.299Z,2.33
2023-03-17T11:17:54.265Z,1.83
2023-03-17T11:20:42.646Z,2.03
2023-03-17T11:23:22.270Z,2.33
2023-03-17T11:26:03.160Z,2.13
2023-03-17T11:28:35.124Z,2.20
2023-03-17T11:31:09.674Z,2.00
2023-03-17T11:33:44.047Z,2.33
2023-03-17T11:36:23.529Z,1.87
2023-03-17T11:38:59.824Z,2.13
2023-03-17T11:41:36.400Z,1.93
2023-03-17T11:44:23.642Z,2.33
2023-03-17T11:46:54.588Z,2.00
2023-03-17T11:49:25.090Z,2.57
2023-03-17T11:52:00.370Z,2.30
2023-03-17T11:54:36.637Z,2.10
2023-03-17T11:57:07.745Z,2.13
2023-03-17T11:59:39.516Z,2.10
2023-03-17T12:02:15.168Z,2.33
2023-03-17T12:04:49.177Z,1.90
2023-03-17T12:07:22.458Z,2.30
2023-03-17T12:10:01.301Z,2.43
2023-03-17T12:12:33.319Z,2.27
2023-03-17T12:15:02.204Z,2.17
2023-03-17T12:17:32.670Z,2.40
2023-03-17T12:20:09.639Z,2.10
2023-03-17T12:22:42.343Z,2.23
2023-03-17T12:25:19.669Z,2.13
2023-03-17T12:27:53.766Z,2.20
2023-03-17T12:30:32.659Z,2.30
2023-03-17T12:33:07.372Z,2.50
2023-03-17T12:35:37.244Z,2.30
2023-03-17T12:38:10.600Z,3.03
2023-03-17T12:40:47.572Z,2.23
2023-03-17T12:43:37.018Z,2.30
2023-03-17T12:46:52.448Z,2.50
2023-03-17T12:49:45.151Z,2.90
2023-03-17T12:52:21.057Z,2.17
2023-03-17T12:54:51.717Z,2.50
2023-03-17T12:57:22.327Z,2.10
2023-03-17T12:59:55.177Z,2.23
2023-03-17T13:02:33.635Z,2.30
2023-03-17T13:05:02.175Z,2.47
2023-03-17T13:07:34.373Z,1.80
2023-03-17T13:10:19.958Z,2.13
2023-03-17T13:13:12.346Z,2.40
2023-03-17T13:15:55.489Z,1.93
2023-03-17T13:18:40.026Z,2.30
2023-03-17T13:21:13.795Z,2.10
2023-03-17T13:23:44.385Z,2.40
2023-03-17T13:26:19.896Z,2.10
2023-03-17T13:28:50.128Z,2.83
2023-03-17T13:31:34.704Z,2.57
2023-03-17T13:34:18.289Z,2.70
2023-03-17T13:36:57.779Z,3.20
2023-03-17T13:40:00.517Z,2.83
2023-03-17T13:42:58.899Z,2.60
2023-03-17T13:45:37.418Z,2.40
2023-03-17T13:48:27.301Z,2.53
2023-03-17T13:51:00.220Z,2.67
2023-03-17T13:53:30.448Z,2.20
2023-03-17T13:56:16.723Z,2.67
2023-03-17T13:59:12.741Z,2.73
2023-03-17T14:01:43.774Z,2.70
2023-03-17T14:04:20.761Z,2.70
2023-03-17T14:06:50.844Z,2.30
2023-03-17T14:09:27.944Z,2.30
2023-03-17T14:11:59.421Z,2.40
2023-03-17T14:14:37.829Z,2.43
2023-03-17T14:17:12.139Z,2.53
2023-03-17T14:19:41.812Z,3.17
2023-03-17T14:22:21.408Z,2.80
2023-03-17T14:24:54.097Z,2.10
2023-03-17T14:27:24.000Z,2.90
2023-03-17T14:29:53.406Z,2.80
2023-03-17T14:32:22.699Z,2.43
2023-03-17T14:34:56.149Z,2.40
2023-03-17T14:37:25.146Z,2.40
2023-03-17T14:39:57.548Z,2.47
2023-03-17T14:42:28.482Z,2.70
2023-03-17T14:45:06.124Z,2.63
2023-03-17T14:47:38.926Z,2.50
2023-03-17T14:50:09.700Z,2.60
2023-03-17T14:52:41.161Z,2.73
2023-03-17T14:55:14.102Z,2.47
2023-03-17T14:57:42.108Z,2.40
2023-03-17T15:00:31.841Z,2.00
2023-03-17T15:03:03.282Z,2.50
2023-03-17T15:05:39.280Z,2.13
2023-03-17T15:08:29.807Z,2.47
2023-03-17T15:11:00.297Z,3.70
2023-03-17T15:13:29.079Z,2.50
2023-03-17T15:15:59.063Z,2.57
2023-03-17T15:18:26.990Z,2.30
2023-03-17T15:20:56.290Z,3.00
2023-03-17T15:23:26.891Z,2.90
2023-03-17T15:25:56.689Z,3.00
2023-03-17T15:28:26.873Z,2.57
2023-03-17T15:30:55.995Z,2.20
2023-03-17T15:33:33.448Z,2.07
2023-03-17T15:36:01.749Z,2.43
2023-03-17T15:38:30.312Z,2.07
2023-03-17T15:40:58.510Z,2.37
2023-03-17T15:43:26.489Z,1.90
2023-03-17T15:46:00.797Z,2.50
2023-03-17T15:48:37.359Z,2.13
2023-03-17T15:51:13.969Z,2.60
2023-03-17T15:53:41.914Z,2.63
2023-03-17T15:56:20.406Z,2.23
2023-03-17T15:58:49.271Z,2.80
2023-03-17T16:01:17.753Z,2.53
2023-03-17T16:03:47.449Z,3.17
2023-03-17T16:06:17.617Z,2.47
2023-03-17T16:08:46.497Z,2.80
2023-03-17T16:11:16.681Z,3.17
2023-03-17T16:13:44.627Z,2.30
2023-03-17T16:16:21.499Z,2.20
2023-03-17T16:18:52.610Z,1.90
2023-03-17T16:21:21.371Z,2.37
2023-03-17T16:23:49.917Z,2.50
2023-03-17T16:26:17.941Z,2.10
2023-03-17T16:28:47.687Z,2.20
2023-03-17T16:31:19.395Z,2.60
2023-03-17T16:33:47.600Z,2.20
2023-03-17T16:36:18.514Z,1.83
2023-03-17T16:38:47.298Z,2.20
2023-03-17T16:41:19.200Z,2.40
2023-03-17T16:43:51.154Z,2.33
2023-03-17T16:46:19.904Z,2.20
2023-03-17T16:48:48.665Z,2.07
2023-03-17T16:51:18.365Z,2.80
2023-03-17T16:53:46.978Z,2.47
2023-03-17T16:56:17.684Z,2.10
2023-03-17T16:58:46.745Z,2.00
2023-03-17T17:01:17.391Z,2.10
2023-03-17T17:03:45.353Z,2.13
2023-03-17T17:06:14.368Z,1.57
2023-03-17T17:08:44.455Z,1.57
2023-03-17T17:11:14.092Z,1.50
2023-03-17T17:13:42.408Z,2.10
2023-03-17T17:16:20.405Z,2.30
2023-03-17T17:18:48.441Z,2.20
2023-03-17T17:21:16.709Z,2.90
2023-03-17T17:23:46.122Z,3.20
2023-03-17T17:26:14.197Z,6.70
2023-03-17T17:28:42.793Z,5.97
2023-03-17T17:31:11.202Z,4.43
2023-03-17T17:33:40.060Z,3.37
2023-03-17T17:36:13.167Z,3.43
2023-03-17T17:38:41.340Z,3.50
2023-03-17T17:41:12.710Z,3.30
2023-03-17T17:43:41.151Z,3.53
2023-03-17T17:46:12.476Z,2.40
2023-03-17T17:48:40.633Z,2.63
2023-03-17T17:51:08.603Z,4.67
2023-03-17T17:53:36.899Z,3.87
2023-03-17T17:56:05.214Z,3.23
2023-03-17T17:58:34.652Z,3.33
2023-03-17T18:01:04.812Z,2.63
2023-03-17T18:03:33.008Z,2.00
2023-03-17T18:06:01.157Z,2.50
2023-03-17T18:08:29.123Z,2.60
2023-03-17T18:10:57.356Z,2.07
2023-03-17T18:13:25.509Z,2.03
2023-03-17T18:15:54.785Z,2.20
2023-03-17T18:18:22.664Z,2.00
2023-03-17T18:20:50.948Z,2.30
2023-03-17T18:23:20.229Z,2.10
2023-03-17T18:25:48.492Z,4.00
2023-03-17T18:28:17.218Z,4.17
2023-03-17T18:30:45.989Z,4.30
2023-03-17T18:33:18.224Z,3.10
2023-03-17T18:35:48.197Z,3.10
2023-03-17T18:38:16.209Z,4.50
2023-03-17T18:40:44.682Z,2.97
2023-03-17T18:43:12.605Z,2.53
2023-03-17T18:45:40.538Z,2.67
2023-03-17T18:48:08.548Z,2.50
2023-03-17T18:50:37.815Z,3.27
2023-03-17T18:53:06.091Z,3.40
2023-03-17T18:55:33.987Z,2.83
2023-03-17T18:58:01.887Z,2.53
2023-03-17T19:00:30.173Z,3.37
2023-03-17T19:02:58.170Z,2.93
2023-03-17T19:05:26.440Z,2.80
2023-03-17T19:07:55.816Z,2.40
2023-03-17T19:10:23.815Z,2.30
2023-03-17T19:12:52.166Z,2.60
2023-03-17T19:15:20.725Z,2.57
2023-03-17T19:17:50.403Z,2.83
2023-03-17T19:20:18.820Z,2.60
2023-03-17T19:22:47.438Z,2.47
2023-03-17T19:25:17.241Z,2.50
2023-03-17T19:27:45.351Z,2.50
2023-03-17T19:30:14.616Z,2.47
2023-03-17T19:32:42.702Z,2.10
2023-03-17T19:35:11.753Z,1.90
2023-03-17T19:37:39.662Z,1.80
2023-03-17T19:40:09.827Z,1.97
2023-03-17T19:42:39.125Z,2.10
2023-03-17T19:45:08.209Z,2.27
2023-03-17T19:47:36.281Z,2.30
2023-03-17T19:50:04.526Z,2.20
2023-03-17T19:52:32.392Z,2.40
2023-03-17T19:55:00.449Z,2.27
2023-03-17T19:57:28.411Z,2.70
2023-03-17T19:59:57.951Z,2.53
2023-03-17T20:02:25.830Z,2.57
2023-03-17T20:04:54.311Z,3.33
2023-03-17T20:07:22.402Z,3.00
2023-03-17T20:09:51.003Z,3.03
2023-03-17T20:12:19.014Z,2.70
2023-03-17T20:14:46.935Z,3.40
2023-03-17T20:17:17.345Z,3.37
2023-03-17T20:19:45.577Z,3.10
2023-03-17T20:22:13.488Z,2.63
2023-03-17T20:24:42.529Z,3.03
2023-03-17T20:27:11.363Z,3.50
2023-03-17T20:29:39.675Z,3.70
2023-03-17T20:32:07.612Z,2.70
2023-03-17T20:34:36.913Z,2.40
2023-03-17T20:37:04.896Z,2.43
2023-03-17T20:39:32.866Z,2.43
2023-03-17T20:42:21.299Z,2.50
2023-03-17T20:44:52.842Z,2.53
2023-03-17T20:47:21.509Z,2.90
2023-03-17T20:49:50.896Z,2.93
2023-03-17T20:52:18.795Z,2.50
2023-03-17T20:54:46.863Z,2.33
2023-03-17T20:57:16.015Z,2.17
2023-03-17T20:59:45.270Z,2.53
2023-03-17T21:02:16.987Z,2.43
2023-03-17T21:04:47.654Z,2.70
2023-03-17T21:07:18.355Z,2.30
2023-03-17T21:09:46.712Z,2.80
2023-03-17T21:12:16.243Z,4.10
2023-03-17T21:14:44.294Z,5.13
2023-03-17T21:17:12.586Z,2.83
2023-03-17T21:19:40.608Z,2.63
2023-03-17T21:22:08.755Z,2.67
2023-03-17T21:24:41.999Z,2.87
2023-03-17T21:27:11.209Z,3.20
2023-03-17T21:29:39.926Z,3.10
2023-03-17T21:32:08.465Z,2.87
2023-03-17T21:34:37.978Z,2.50
2023-03-17T21:37:06.605Z,2.53
2023-03-17T21:39:36.246Z,2.47
2023-03-17T21:42:08.701Z,2.23
2023-03-17T21:44:36.603Z,2.37
2023-03-17T21:47:04.659Z,2.20
2023-03-17T21:49:32.609Z,2.37
2023-03-17T21:52:00.584Z,2.07
2023-03-17T21:54:28.528Z,1.90
2023-03-17T21:56:56.583Z,2.33
2023-03-17T21:59:26.163Z,2.20
2023-03-17T22:01:54.536Z,2.80
2023-03-17T22:04:22.668Z,2.37
2023-03-17T22:06:52.166Z,2.23
2023-03-17T22:09:20.738Z,2.50
2023-03-17T22:11:49.685Z,2.90
2023-03-17T22:14:20.668Z,2.73
2023-03-17T22:16:50.859Z,2.63
2023-03-17T22:19:21.104Z,2.43
2023-03-17T22:21:49.295Z,2.20
2023-03-17T22:24:17.537Z,2.73
2023-03-17T22:26:45.499Z,2.73
2023-03-17T22:29:13.611Z,2.43
2023-03-17T22:31:42.094Z,2.50
2023-03-17T22:34:11.522Z,2.53
2023-03-17T22:36:39.467Z,2.50
2023-03-17T22:39:08.846Z,2.60
2023-03-17T22:41:37.039Z,2.40
2023-03-17T22:44:05.079Z,2.00
2023-03-17T22:46:32.995Z,1.97
2023-03-17T22:49:00.922Z,2.20
2023-03-17T22:51:30.264Z,2.37
2023-03-17T22:53:58.264Z,2.13
2023-03-17T22:56:26.879Z,1.90
2023-03-17T22:58:55.435Z,2.00
2023-03-17T23:01:25.851Z,2.10
2023-03-17T23:03:54.202Z,2.10
2023-03-17T23:06:22.673Z,2.10
2023-03-17T23:08:52.260Z,1.93
2023-03-17T23:11:23.250Z,1.80
2023-03-17T23:13:52.669Z,2.03
2023-03-17T23:16:22.115Z,1.93
2023-03-17T23:18:50.735Z,1.90
2023-03-17T23:21:23.572Z,1.90
2023-03-17T23:23:52.880Z,1.73
2023-03-17T23:26:21.305Z,2.00
2023-03-17T23:28:49.641Z,2.00
2023-03-17T23:31:19.349Z,1.90
2023-03-17T23:33:47.937Z,2.10
2023-03-17T23:36:16.274Z,1.80
2023-03-17T23:38:45.527Z,2.00
2023-03-17T23:41:16.393Z,2.10
2023-03-17T23:43:44.921Z,1.70
2023-03-17T23:46:13.881Z,1.63
2023-03-17T23:48:42.942Z,1.83
2023-03-17T23:51:12.436Z,1.77
2023-03-17T23:53:40.700Z,2.37
2023-03-17T23:56:09.337Z,1.90
2023-03-17T23:58:38.656Z,1.50
